Wuming, China
Current Conditions -  °F | °C
As of 8:00 AM on Tuesday 23 Dec 2014 (Local Time) from ZGNN Reporting Station
Few Clouds Few Clouds  
Wind Chill: 43°   Ceiling: Unl
Heat Index: 43°   Visibility: 4mi
Dew Point: 39°   Wind: 2mph
Humidity: 87%   Direction: 20°NNE
Pressure: 30.18"   Gusts: NA
Location:  23.17°N, 108.27°E
Report Text: ZGNN 230000Z 02001MPS 6000 FEW023 06/04 Q1022 NOSIG
Loading
Personal Weather Stations






























Interactive Weather Map New forecast layout! Learn more

10-Day Weather Forecast

Advertisements
Track Severe Weather on mobile